sensor_id;sensor_type;location;lat;lon;timestamp;pressure;altitude;pressure_sealevel;temperature;humidity
13952;BME280;39535;52.192;9.886;2023-02-12T00:01:57;102312.69;;;7.13;100.00
13952;BME280;39535;52.192;9.886;2023-02-12T00:04:23;102316.09;;;7.11;100.00
13952;BME280;39535;52.192;9.886;2023-02-12T00:06:51;102322.25;;;7.14;100.00
13952;BME280;39535;52.192;9.886;2023-02-12T00:09:17;102323.06;;;7.12;100.00
13952;BME280;39535;52.192;9.886;2023-02-12T00:11:43;102332.59;;;7.13;100.00
13952;BME280;39535;52.192;9.886;2023-02-12T00:14:10;102331.81;;;7.15;100.00
13952;BME280;39535;52.192;9.886;2023-02-12T00:16:36;102331.94;;;7.20;100.00
13952;BME280;39535;52.192;9.886;2023-02-12T00:19:02;102332.66;;;7.14;100.00
13952;BME280;39535;52.192;9.886;2023-02-12T00:21:29;102336.13;;;7.15;100.00
13952;BME280;39535;52.192;9.886;2023-02-12T00:23:57;102335.19;;;7.13;100.00
13952;BME280;39535;52.192;9.886;2023-02-12T00:26:23;102347.31;;;7.12;100.00
13952;BME280;39535;52.192;9.886;2023-02-12T00:28:50;102339.44;;;7.09;100.00
13952;BME280;39535;52.192;9.886;2023-02-12T00:31:18;102341.91;;;7.05;100.00
13952;BME280;39535;52.192;9.886;2023-02-12T00:33:45;102337.63;;;7.07;100.00
13952;BME280;39535;52.192;9.886;2023-02-12T00:36:13;102335.91;;;7.06;100.00
13952;BME280;39535;52.192;9.886;2023-02-12T00:38:40;102339.47;;;7.11;100.00
13952;BME280;39535;52.192;9.886;2023-02-12T00:41:09;102338.50;;;7.07;100.00
13952;BME280;39535;52.192;9.886;2023-02-12T00:43:35;102347.19;;;7.08;100.00
13952;BME280;39535;52.192;9.886;2023-02-12T00:46:02;102343.69;;;7.07;100.00
13952;BME280;39535;52.192;9.886;2023-02-12T00:48:31;102350.72;;;7.10;100.00
13952;BME280;39535;52.192;9.886;2023-02-12T00:50:58;102350.56;;;7.04;100.00
13952;BME280;39535;52.192;9.886;2023-02-12T00:53:24;102349.69;;;7.05;100.00
13952;BME280;39535;52.192;9.886;2023-02-12T00:55:51;102354.03;;;7.04;100.00
13952;BME280;39535;52.192;9.886;2023-02-12T00:58:18;102351.59;;;7.10;100.00
13952;BME280;39535;52.192;9.886;2023-02-12T01:00:45;102351.44;;;7.04;100.00
13952;BME280;39535;52.192;9.886;2023-02-12T01:03:12;102359.34;;;7.09;100.00
13952;BME280;39535;52.192;9.886;2023-02-12T01:05:38;102357.50;;;7.05;100.00
13952;BME280;39535;52.192;9.886;2023-02-12T01:08:04;102360.97;;;7.05;100.00
13952;BME280;39535;52.192;9.886;2023-02-12T01:10:31;102360.94;;;7.04;100.00
13952;BME280;39535;52.192;9.886;2023-02-12T01:12:59;102362.63;;;7.02;100.00
13952;BME280;39535;52.192;9.886;2023-02-12T01:15:26;102362.75;;;7.06;100.00
13952;BME280;39535;52.192;9.886;2023-02-12T01:17:53;102369.81;;;7.12;100.00
13952;BME280;39535;52.192;9.886;2023-02-12T01:20:21;102377.56;;;7.10;100.00
13952;BME280;39535;52.192;9.886;2023-02-12T01:22:48;102383.63;;;7.11;100.00
13952;BME280;39535;52.192;9.886;2023-02-12T01:25:15;102377.56;;;7.10;100.00
13952;BME280;39535;52.192;9.886;2023-02-12T01:27:41;102382.66;;;7.07;100.00
13952;BME280;39535;52.192;9.886;2023-02-12T01:30:10;102384.50;;;7.11;100.00
13952;BME280;39535;52.192;9.886;2023-02-12T01:32:38;102378.31;;;7.06;100.00
13952;BME280;39535;52.192;9.886;2023-02-12T01:35:07;102380.06;;;7.07;100.00
13952;BME280;39535;52.192;9.886;2023-02-12T01:37:34;102373.94;;;7.05;100.00
13952;BME280;39535;52.192;9.886;2023-02-12T01:40:01;102374.69;;;7.01;100.00
13952;BME280;39535;52.192;9.886;2023-02-12T01:42:28;102377.50;;;7.09;100.00
13952;BME280;39535;52.192;9.886;2023-02-12T01:48:19;102379.31;;;7.11;100.00
13952;BME280;39535;52.192;9.886;2023-02-12T01:50:48;102375.00;;;7.12;100.00
13952;BME280;39535;52.192;9.886;2023-02-12T01:53:17;102375.84;;;7.11;100.00
13952;BME280;39535;52.192;9.886;2023-02-12T01:55:48;102369.00;;;7.14;100.00
13952;BME280;39535;52.192;9.886;2023-02-12T01:58:16;102373.06;;;7.05;100.00
13952;BME280;39535;52.192;9.886;2023-02-12T02:00:43;102371.41;;;7.07;100.00
13952;BME280;39535;52.192;9.886;2023-02-12T02:03:10;102366.00;;;6.99;100.00
13952;BME280;39535;52.192;9.886;2023-02-12T02:05:42;102367.13;;;7.09;100.00
13952;BME280;39535;52.192;9.886;2023-02-12T02:08:11;102369.81;;;7.13;100.00
13952;BME280;39535;52.192;9.886;2023-02-12T02:10:38;102364.19;;;6.96;100.00
13952;BME280;39535;52.192;9.886;2023-02-12T02:13:05;102360.47;;;6.87;100.00
13952;BME280;39535;52.192;9.886;2023-02-12T02:15:52;102349.28;;;6.89;100.00
13952;BME280;39535;52.192;9.886;2023-02-12T02:18:23;102353.44;;;6.83;100.00
13952;BME280;39535;52.192;9.886;2023-02-12T02:27:17;102359.84;;;6.95;100.00
13952;BME280;39535;52.192;9.886;2023-02-12T02:32:56;102359.78;;;6.92;100.00
13952;BME280;39535;52.192;9.886;2023-02-12T02:35:31;102370.00;;;6.86;100.00
13952;BME280;39535;52.192;9.886;2023-02-12T02:38:09;102355.28;;;6.87;100.00
13952;BME280;39535;52.192;9.886;2023-02-12T02:40:39;102355.06;;;6.79;100.00
13952;BME280;39535;52.192;9.886;2023-02-12T02:43:14;102355.38;;;6.90;100.00
13952;BME280;39535;52.192;9.886;2023-02-12T02:45:46;102357.00;;;6.86;100.00
13952;BME280;39535;52.192;9.886;2023-02-12T02:48:16;102360.38;;;6.82;100.00
13952;BME280;39535;52.192;9.886;2023-02-12T02:50:47;102364.63;;;6.80;100.00
13952;BME280;39535;52.192;9.886;2023-02-12T02:53:18;102356.97;;;6.85;100.00
13952;BME280;39535;52.192;9.886;2023-02-12T02:55:49;102357.97;;;6.90;100.00
13952;BME280;39535;52.192;9.886;2023-02-12T02:58:20;102369.22;;;6.90;100.00
13952;BME280;39535;52.192;9.886;2023-02-12T03:00:54;102374.81;;;7.04;100.00
13952;BME280;39535;52.192;9.886;2023-02-12T03:03:25;102382.59;;;7.04;100.00
13952;BME280;39535;52.192;9.886;2023-02-12T03:05:57;102388.53;;;7.00;100.00
13952;BME280;39535;52.192;9.886;2023-02-12T03:08:28;102384.16;;;6.99;100.00
13952;BME280;39535;52.192;9.886;2023-02-12T03:11:01;102393.34;;;6.86;100.00
13952;BME280;39535;52.192;9.886;2023-02-12T03:13:33;102393.69;;;6.99;100.00
13952;BME280;39535;52.192;9.886;2023-02-12T03:16:06;102393.03;;;7.06;100.00
13952;BME280;39535;52.192;9.886;2023-02-12T03:18:39;102398.81;;;6.97;100.00
13952;BME280;39535;52.192;9.886;2023-02-12T03:21:11;102396.16;;;6.94;100.00
13952;BME280;39535;52.192;9.886;2023-02-12T03:23:42;102408.97;;;6.88;100.00
13952;BME280;39535;52.192;9.886;2023-02-12T03:26:15;102411.53;;;6.86;100.00
13952;BME280;39535;52.192;9.886;2023-02-12T03:28:45;102406.66;;;6.99;100.00
13952;BME280;39535;52.192;9.886;2023-02-12T03:31:19;102407.69;;;7.04;100.00
13952;BME280;39535;52.192;9.886;2023-02-12T03:33:56;102415.53;;;7.07;100.00
13952;BME280;39535;52.192;9.886;2023-02-12T03:36:32;102422.63;;;7.12;100.00
13952;BME280;39535;52.192;9.886;2023-02-12T03:39:06;102428.56;;;7.08;100.00
13952;BME280;39535;52.192;9.886;2023-02-12T03:41:38;102428.25;;;6.97;100.00
13952;BME280;39535;52.192;9.886;2023-02-12T03:44:14;102421.84;;;6.85;100.00
13952;BME280;39535;52.192;9.886;2023-02-12T03:46:52;102425.59;;;6.94;100.00
13952;BME280;39535;52.192;9.886;2023-02-12T03:49:25;102421.97;;;6.89;100.00
13952;BME280;39535;52.192;9.886;2023-02-12T03:51:54;102422.28;;;7.00;100.00
13952;BME280;39535;52.192;9.886;2023-02-12T03:54:21;102430.19;;;7.05;100.00
13952;BME280;39535;52.192;9.886;2023-02-12T03:56:50;102428.56;;;7.08;100.00
13952;BME280;39535;52.192;9.886;2023-02-12T03:59:19;102442.22;;;7.01;100.00
13952;BME280;39535;52.192;9.886;2023-02-12T04:01:49;102449.25;;;7.05;100.00
13952;BME280;39535;52.192;9.886;2023-02-12T04:04:16;102446.09;;;7.15;100.00
13952;BME280;39535;52.192;9.886;2023-02-12T04:06:45;102455.41;;;7.09;100.00
13952;BME280;39535;52.192;9.886;2023-02-12T04:09:13;102463.38;;;7.15;100.00
13952;BME280;39535;52.192;9.886;2023-02-12T04:11:49;102474.66;;;7.15;100.00
13952;BME280;39535;52.192;9.886;2023-02-12T04:14:24;102479.25;;;6.95;100.00
13952;BME280;39535;52.192;9.886;2023-02-12T04:17:02;102468.88;;;6.95;100.00
13952;BME280;39535;52.192;9.886;2023-02-12T04:19:39;102469.78;;;6.97;100.00
13952;BME280;39535;52.192;9.886;2023-02-12T04:22:14;102477.84;;;7.07;100.00
13952;BME280;39535;52.192;9.886;2023-02-12T04:24:49;102485.69;;;7.08;100.00
13952;BME280;39535;52.192;9.886;2023-02-12T04:27:24;102487.25;;;7.02;100.00
13952;BME280;39535;52.192;9.886;2023-02-12T04:30:00;102480.16;;;6.96;100.00
13952;BME280;39535;52.192;9.886;2023-02-12T04:32:37;102479.94;;;6.88;100.00
13952;BME280;39535;52.192;9.886;2023-02-12T04:35:10;102474.91;;;6.94;100.00
13952;BME280;39535;52.192;9.886;2023-02-12T04:37:43;102476.88;;;7.02;100.00
13952;BME280;39535;52.192;9.886;2023-02-12T04:40:12;102486.63;;;7.10;100.00
13952;BME280;39535;52.192;9.886;2023-02-12T04:42:41;102488.19;;;7.04;100.00
13952;BME280;39535;52.192;9.886;2023-02-12T04:45:08;102484.44;;;6.95;100.00
13952;BME280;39535;52.192;9.886;2023-02-12T04:47:37;102482.59;;;6.90;100.00
13952;BME280;39535;52.192;9.886;2023-02-12T04:50:04;102485.59;;;7.04;100.00
13952;BME280;39535;52.192;9.886;2023-02-12T04:52:31;102488.38;;;7.11;100.00
13952;BME280;39535;52.192;9.886;2023-02-12T04:54:57;102494.09;;;7.00;100.00
13952;BME280;39535;52.192;9.886;2023-02-12T04:57:24;102499.25;;;6.98;100.00
13952;BME280;39535;52.192;9.886;2023-02-12T04:59:50;102506.19;;;6.99;100.00
13952;BME280;39535;52.192;9.886;2023-02-12T05:02:16;102506.53;;;7.11;100.00
13952;BME280;39535;52.192;9.886;2023-02-12T05:04:44;102510.22;;;7.18;100.00
13952;BME280;39535;52.192;9.886;2023-02-12T05:07:11;102511.19;;;7.22;100.00
13952;BME280;39535;52.192;9.886;2023-02-12T05:09:37;102511.22;;;7.23;100.00
13952;BME280;39535;52.192;9.886;2023-02-12T05:12:04;102513.53;;;7.12;100.00
13952;BME280;39535;52.192;9.886;2023-02-12T05:14:30;102515.09;;;7.07;100.00
13952;BME280;39535;52.192;9.886;2023-02-12T05:16:56;102510.97;;;7.14;100.00
13952;BME280;39535;52.192;9.886;2023-02-12T05:19:23;102508.53;;;7.20;100.00
13952;BME280;39535;52.192;9.886;2023-02-12T05:21:50;102511.97;;;7.19;100.00
13952;BME280;39535;52.192;9.886;2023-02-12T05:24:17;102511.78;;;7.13;100.00
13952;BME280;39535;52.192;9.886;2023-02-12T05:26:43;102514.97;;;7.03;100.00
13952;BME280;39535;52.192;9.886;2023-02-12T05:29:10;102515.84;;;7.03;100.00
13952;BME280;39535;52.192;9.886;2023-02-12T05:31:36;102507.28;;;7.06;100.00
13952;BME280;39535;52.192;9.886;2023-02-12T05:34:02;102517.09;;;6.87;100.00
13952;BME280;39535;52.192;9.886;2023-02-12T05:36:29;102499.69;;;6.83;100.00
13952;BME280;39535;52.192;9.886;2023-02-12T05:38:57;102494.25;;;6.75;100.00
13952;BME280;39535;52.192;9.886;2023-02-12T05:41:24;102488.63;;;6.60;100.00
13952;BME280;39535;52.192;9.886;2023-02-12T05:43:51;102476.19;;;6.50;100.00
13952;BME280;39535;52.192;9.886;2023-02-12T05:46:19;102468.25;;;6.45;100.00
13952;BME280;39535;52.192;9.886;2023-02-12T05:48:46;102466.16;;;6.33;100.00
13952;BME280;39535;52.192;9.886;2023-02-12T05:51:14;102459.06;;;6.28;100.00
13952;BME280;39535;52.192;9.886;2023-02-12T05:53:42;102453.75;;;6.23;100.00
13952;BME280;39535;52.192;9.886;2023-02-12T05:56:12;102451.09;;;6.22;100.00
13952;BME280;39535;52.192;9.886;2023-02-12T05:58:40;102461.53;;;6.23;100.00
13952;BME280;39535;52.192;9.886;2023-02-12T06:01:12;102470.53;;;6.34;100.00
13952;BME280;39535;52.192;9.886;2023-02-12T06:03:39;102474.81;;;6.32;100.00
13952;BME280;39535;52.192;9.886;2023-02-12T06:06:06;102475.97;;;6.42;100.00
13952;BME280;39535;52.192;9.886;2023-02-12T06:08:32;102477.72;;;6.43;100.00
13952;BME280;39535;52.192;9.886;2023-02-12T06:11:00;102481.91;;;6.40;100.00
13952;BME280;39535;52.192;9.886;2023-02-12T06:13:29;102480.50;;;6.49;100.00
13952;BME280;39535;52.192;9.886;2023-02-12T06:15:56;102486.75;;;6.56;100.00
13952;BME280;39535;52.192;9.886;2023-02-12T06:18:23;102485.56;;;6.45;100.00
13952;BME280;39535;52.192;9.886;2023-02-12T06:20:50;102486.28;;;6.41;100.00
13952;BME280;39535;52.192;9.886;2023-02-12T06:23:18;102485.25;;;6.35;100.00
13952;BME280;39535;52.192;9.886;2023-02-12T06:25:44;102472.09;;;6.29;100.00
13952;BME280;39535;52.192;9.886;2023-02-12T06:28:11;102478.13;;;6.28;100.00
13952;BME280;39535;52.192;9.886;2023-02-12T06:30:38;102475.38;;;6.24;100.00
13952;BME280;39535;52.192;9.886;2023-02-12T06:33:05;102477.91;;;6.22;100.00
13952;BME280;39535;52.192;9.886;2023-02-12T06:35:33;102482.97;;;6.18;100.00
13952;BME280;39535;52.192;9.886;2023-02-12T06:37:59;102483.00;;;6.19;100.00
13952;BME280;39535;52.192;9.886;2023-02-12T06:40:26;102485.41;;;6.13;100.00
13952;BME280;39535;52.192;9.886;2023-02-12T06:42:52;102481.97;;;6.14;100.00
13952;BME280;39535;52.192;9.886;2023-02-12T06:45:19;102488.00;;;6.13;100.00
13952;BME280;39535;52.192;9.886;2023-02-12T06:47:47;102493.88;;;6.07;100.00
13952;BME280;39535;52.192;9.886;2023-02-12T06:50:13;102501.63;;;6.07;100.00
13952;BME280;39535;52.192;9.886;2023-02-12T06:52:39;102514.59;;;6.07;100.00
13952;BME280;39535;52.192;9.886;2023-02-12T06:55:06;102512.09;;;6.10;100.00
13952;BME280;39535;52.192;9.886;2023-02-12T06:57:32;102518.28;;;6.14;100.00
13952;BME280;39535;52.192;9.886;2023-02-12T06:59:59;102517.41;;;6.13;100.00
13952;BME280;39535;52.192;9.886;2023-02-12T07:02:25;102518.28;;;6.14;100.00
13952;BME280;39535;52.192;9.886;2023-02-12T07:04:53;102531.34;;;6.17;100.00
13952;BME280;39535;52.192;9.886;2023-02-12T07:07:19;102539.06;;;6.15;100.00
13952;BME280;39535;52.192;9.886;2023-02-12T07:09:45;102545.13;;;6.16;100.00
13952;BME280;39535;52.192;9.886;2023-02-12T07:12:12;102556.28;;;6.13;100.00
13952;BME280;39535;52.192;9.886;2023-02-12T07:14:38;102556.41;;;6.16;100.00
13952;BME280;39535;52.192;9.886;2023-02-12T07:17:04;102561.72;;;6.21;100.00
13952;BME280;39535;52.192;9.886;2023-02-12T07:19:32;102571.38;;;6.25;100.00
13952;BME280;39535;52.192;9.886;2023-02-12T07:22:00;102560.94;;;6.24;100.00
13952;BME280;39535;52.192;9.886;2023-02-12T07:24:27;102567.06;;;6.26;100.00
13952;BME280;39535;52.192;9.886;2023-02-12T07:26:53;102572.44;;;6.30;100.00
13952;BME280;39535;52.192;9.886;2023-02-12T07:29:20;102576.91;;;6.36;100.00
13952;BME280;39535;52.192;9.886;2023-02-12T07:31:46;102577.63;;;6.30;100.00
13952;BME280;39535;52.192;9.886;2023-02-12T07:34:12;102577.81;;;6.36;100.00
13952;BME280;39535;52.192;9.886;2023-02-12T07:36:39;102582.34;;;6.44;100.00
13952;BME280;39535;52.192;9.886;2023-02-12T07:39:10;102578.94;;;6.45;100.00
13952;BME280;39535;52.192;9.886;2023-02-12T07:41:37;102586.88;;;6.49;100.00
13952;BME280;39535;52.192;9.886;2023-02-12T07:44:04;102585.69;;;6.40;100.00
13952;BME280;39535;52.192;9.886;2023-02-12T07:46:34;102584.91;;;6.42;100.00
13952;BME280;39535;52.192;9.886;2023-02-12T07:49:02;102588.47;;;6.46;100.00
13952;BME280;39535;52.192;9.886;2023-02-12T07:51:30;102581.25;;;6.63;100.00
13952;BME280;39535;52.192;9.886;2023-02-12T07:53:58;102582.72;;;6.54;100.00
13952;BME280;39535;52.192;9.886;2023-02-12T07:56:29;102577.59;;;6.57;100.00
13952;BME280;39535;52.192;9.886;2023-02-12T07:58:58;102589.53;;;6.80;100.00
13952;BME280;39535;52.192;9.886;2023-02-12T08:01:26;102590.41;;;6.79;100.00
13952;BME280;39535;52.192;9.886;2023-02-12T08:03:56;102596.81;;;6.63;100.00
13952;BME280;39535;52.192;9.886;2023-02-12T08:06:24;102593.13;;;6.56;100.00
13952;BME280;39535;52.192;9.886;2023-02-12T08:08:52;102588.28;;;6.67;100.00
13952;BME280;39535;52.192;9.886;2023-02-12T08:11:19;102584.41;;;6.81;100.00
13952;BME280;39535;52.192;9.886;2023-02-12T08:13:47;102586.50;;;6.93;100.00
13952;BME280;39535;52.192;9.886;2023-02-12T08:16:15;102589.41;;;7.02;100.00
13952;BME280;39535;52.192;9.886;2023-02-12T08:18:42;102589.06;;;7.20;100.00
13952;BME280;39535;52.192;9.886;2023-02-12T08:21:10;102590.41;;;7.36;100.00
13952;BME280;39535;52.192;9.886;2023-02-12T08:23:37;102590.84;;;7.53;100.00
13952;BME280;39535;52.192;9.886;2023-02-12T08:26:06;102587.56;;;7.59;100.00
13952;BME280;39535;52.192;9.886;2023-02-12T08:28:33;102598.94;;;7.62;100.00
13952;BME280;39535;52.192;9.886;2023-02-12T08:31:02;102602.63;;;7.70;100.00
13952;BME280;39535;52.192;9.886;2023-02-12T08:33:29;102609.06;;;7.83;100.00
13952;BME280;39535;52.192;9.886;2023-02-12T08:36:03;102629.19;;;7.60;100.00
13952;BME280;39535;52.192;9.886;2023-02-12T08:38:30;102633.00;;;7.71;100.00
13952;BME280;39535;52.192;9.886;2023-02-12T08:40:59;102641.66;;;7.72;100.00
13952;BME280;39535;52.192;9.886;2023-02-12T08:43:26;102649.06;;;7.58;100.00
13952;BME280;39535;52.192;9.886;2023-02-12T08:45:52;102648.41;;;7.65;100.00
13952;BME280;39535;52.192;9.886;2023-02-12T08:48:20;102648.97;;;7.55;100.00
13952;BME280;39535;52.192;9.886;2023-02-12T08:50:46;102657.78;;;7.60;100.00
13952;BME280;39535;52.192;9.886;2023-02-12T08:53:13;102657.44;;;7.48;100.00
13952;BME280;39535;52.192;9.886;2023-02-12T08:55:47;102657.28;;;7.43;100.00
13952;BME280;39535;52.192;9.886;2023-02-12T08:58:13;102651.44;;;7.50;100.00
13952;BME280;39535;52.192;9.886;2023-02-12T09:00:40;102649.00;;;7.56;100.00
13952;BME280;39535;52.192;9.886;2023-02-12T09:03:06;102652.97;;;7.74;100.00
13952;BME280;39535;52.192;9.886;2023-02-12T09:05:37;102662.72;;;7.81;100.00
13952;BME280;39535;52.192;9.886;2023-02-12T09:08:03;102667.88;;;7.49;100.00
13952;BME280;39535;52.192;9.886;2023-02-12T09:10:30;102660.16;;;7.52;100.00
13952;BME280;39535;52.192;9.886;2023-02-12T09:12:56;102654.81;;;7.48;100.00
13952;BME280;39535;52.192;9.886;2023-02-12T09:15:23;102663.09;;;7.63;100.00
13952;BME280;39535;52.192;9.886;2023-02-12T09:17:49;102668.66;;;7.47;100.00
13952;BME280;39535;52.192;9.886;2023-02-12T09:20:16;102659.28;;;7.52;100.00
13952;BME280;39535;52.192;9.886;2023-02-12T09:22:44;102664.03;;;7.67;100.00
13952;BME280;39535;52.192;9.886;2023-02-12T09:25:10;102664.34;;;7.78;100.00
13952;BME280;39535;52.192;9.886;2023-02-12T09:27:36;102669.91;;;7.90;100.00
13952;BME280;39535;52.192;9.886;2023-02-12T09:30:03;102684.97;;;7.71;100.00
13952;BME280;39535;52.192;9.886;2023-02-12T09:32:30;102688.56;;;7.75;100.00
13952;BME280;39535;52.192;9.886;2023-02-12T09:34:56;102694.69;;;7.79;100.00
13952;BME280;39535;52.192;9.886;2023-02-12T09:37:23;102693.66;;;7.72;100.00
13952;BME280;39535;52.192;9.886;2023-02-12T09:39:50;102695.38;;;7.71;100.00
13952;BME280;39535;52.192;9.886;2023-02-12T09:42:36;102692.09;;;7.77;100.00
13952;BME280;39535;52.192;9.886;2023-02-12T09:45:15;102704.50;;;7.59;100.00
13952;BME280;39535;52.192;9.886;2023-02-12T09:47:48;102702.94;;;7.64;100.00
13952;BME280;39535;52.192;9.886;2023-02-12T09:50:28;102695.38;;;7.71;100.00
13952;BME280;39535;52.192;9.886;2023-02-12T09:52:57;102705.72;;;7.70;100.00
13952;BME280;39535;52.192;9.886;2023-02-12T09:55:29;102703.81;;;7.64;100.00
13952;BME280;39535;52.192;9.886;2023-02-12T09:57:56;102703.25;;;7.74;100.00
13952;BME280;39535;52.192;9.886;2023-02-12T10:00:24;102706.25;;;7.88;100.00
13952;BME280;39535;52.192;9.886;2023-02-12T10:02:53;102705.72;;;8.00;100.00
13952;BME280;39535;52.192;9.886;2023-02-12T10:05:23;102719.97;;;8.13;100.00
13952;BME280;39535;52.192;9.886;2023-02-12T10:10:52;102743.13;;;8.35;100.00
13952;BME280;39535;52.192;9.886;2023-02-12T10:13:33;102753.13;;;8.50;100.00
13952;BME280;39535;52.192;9.886;2023-02-12T10:16:08;102765.13;;;8.45;100.00
13952;BME280;39535;52.192;9.886;2023-02-12T10:18:59;102786.84;;;8.47;100.00
13952;BME280;39535;52.192;9.886;2023-02-12T10:21:43;102782.09;;;8.32;100.00
13952;BME280;39535;52.192;9.886;2023-02-12T10:24:25;102790.22;;;8.43;100.00
13952;BME280;39535;52.192;9.886;2023-02-12T10:27:00;102792.72;;;8.70;100.00
13952;BME280;39535;52.192;9.886;2023-02-12T10:29:31;102818.69;;;8.69;100.00
13952;BME280;39535;52.192;9.886;2023-02-12T10:32:01;102823.19;;;8.74;100.00
13952;BME280;39535;52.192;9.886;2023-02-12T10:34:32;102828.56;;;8.49;100.00
13952;BME280;39535;52.192;9.886;2023-02-12T10:37:02;102833.06;;;8.56;100.00
13952;BME280;39535;52.192;9.886;2023-02-12T10:39:34;102850.53;;;8.60;100.00
13952;BME280;39535;52.192;9.886;2023-02-12T10:42:08;102843.47;;;8.86;100.00
13952;BME280;39535;52.192;9.886;2023-02-12T10:44:35;102868.44;;;8.80;100.00
13952;BME280;39535;52.192;9.886;2023-02-12T10:47:01;102881.63;;;8.84;100.00
13952;BME280;39535;52.192;9.886;2023-02-12T10:49:29;102884.31;;;8.57;100.00
13952;BME280;39535;52.192;9.886;2023-02-12T10:52:02;102876.72;;;8.65;100.00
13952;BME280;39535;52.192;9.886;2023-02-12T10:54:33;102882.34;;;8.48;100.00
13952;BME280;39535;52.192;9.886;2023-02-12T10:57:07;102872.59;;;8.41;100.00
13952;BME280;39535;52.192;9.886;2023-02-12T10:59:35;102872.69;;;8.46;100.00
13952;BME280;39535;52.192;9.886;2023-02-12T11:02:01;102868.69;;;8.57;100.00
13952;BME280;39535;52.192;9.886;2023-02-12T11:04:31;102885.50;;;8.40;100.00
13952;BME280;39535;52.192;9.886;2023-02-12T11:07:00;102877.59;;;8.65;100.00
13952;BME280;39535;52.192;9.886;2023-02-12T11:09:29;102871.41;;;8.62;100.00
13952;BME280;39535;52.192;9.886;2023-02-12T11:11:55;102847.59;;;8.48;100.00
13952;BME280;39535;52.192;9.886;2023-02-12T11:14:24;102832.38;;;8.62;100.00
13952;BME280;39535;52.192;9.886;2023-02-12T11:16:52;102833.59;;;8.43;100.00
13952;BME280;39535;52.192;9.886;2023-02-12T11:19:21;102827.00;;;8.55;100.00
13952;BME280;39535;52.192;9.886;2023-02-12T11:21:48;102823.78;;;8.64;100.00
13952;BME280;39535;52.192;9.886;2023-02-12T11:24:28;102826.50;;;8.69;100.00
13952;BME280;39535;52.192;9.886;2023-02-12T11:27:26;102832.09;;;8.83;100.00
13952;BME280;39535;52.192;9.886;2023-02-12T11:30:11;102854.13;;;8.64;100.00
13952;BME280;39535;52.192;9.886;2023-02-12T11:32:38;102846.78;;;8.49;100.00
13952;BME280;39535;52.192;9.886;2023-02-12T11:35:09;102836.69;;;8.61;100.00
13952;BME280;39535;52.192;9.886;2023-02-12T11:37:39;102826.56;;;8.72;100.00
13952;BME280;39535;52.192;9.886;2023-02-12T11:40:14;102840.00;;;8.87;100.00
13952;BME280;39535;52.192;9.886;2023-02-12T11:42:47;102861.09;;;8.97;99.16
13952;BME280;39535;52.192;9.886;2023-02-12T11:45:17;102864.53;;;8.95;98.92
13952;BME280;39535;52.192;9.886;2023-02-12T11:47:45;102876.63;;;8.93;99.04
13952;BME280;39535;52.192;9.886;2023-02-12T11:50:20;102877.00;;;9.06;98.07
13952;BME280;39535;52.192;9.886;2023-02-12T11:52:49;102886.94;;;9.21;97.65
13952;BME280;39535;52.192;9.886;2023-02-12T11:55:20;102888.78;;;9.25;97.65
13952;BME280;39535;52.192;9.886;2023-02-12T11:57:49;102904.84;;;9.42;97.05
13952;BME280;39535;52.192;9.886;2023-02-12T12:00:20;102910.53;;;9.60;96.15
13952;BME280;39535;52.192;9.886;2023-02-12T12:02:52;102945.16;;;9.54;94.27
13952;BME280;39535;52.192;9.886;2023-02-12T12:05:21;102964.31;;;8.93;94.56
13952;BME280;39535;52.192;9.886;2023-02-12T12:07:54;102924.22;;;8.86;96.86
13952;BME280;39535;52.192;9.886;2023-02-12T12:10:31;102870.94;;;8.75;99.01
13952;BME280;39535;52.192;9.886;2023-02-12T12:13:03;102844.47;;;8.91;100.00
13952;BME280;39535;52.192;9.886;2023-02-12T12:15:33;102833.13;;;8.89;99.70
13952;BME280;39535;52.192;9.886;2023-02-12T12:18:24;102824.19;;;8.80;100.00
13952;BME280;39535;52.192;9.886;2023-02-12T12:21:14;102818.31;;;8.87;100.00
13952;BME280;39535;52.192;9.886;2023-02-12T12:23:48;102819.00;;;8.81;99.39
13952;BME280;39535;52.192;9.886;2023-02-12T12:26:21;102832.81;;;8.77;99.39
13952;BME280;39535;52.192;9.886;2023-02-12T12:28:51;102830.69;;;8.62;99.28
13952;BME280;39535;52.192;9.886;2023-02-12T12:31:24;102805.41;;;8.60;100.00
13952;BME280;39535;52.192;9.886;2023-02-12T12:33:58;102797.75;;;8.66;100.00
13952;BME280;39535;52.192;9.886;2023-02-12T12:39:34;102782.19;;;8.67;100.00
13952;BME280;39535;52.192;9.886;2023-02-12T12:45:13;102764.28;;;8.80;100.00
13952;BME280;39535;52.192;9.886;2023-02-12T12:47:54;102774.69;;;8.78;100.00
13952;BME280;39535;52.192;9.886;2023-02-12T12:50:34;102769.38;;;8.75;100.00
13952;BME280;39535;52.192;9.886;2023-02-12T12:53:15;102771.88;;;8.70;100.00
13952;BME280;39535;52.192;9.886;2023-02-12T12:55:57;102766.50;;;8.64;100.00
13952;BME280;39535;52.192;9.886;2023-02-12T12:58:42;102770.03;;;8.66;100.00
13952;BME280;39535;52.192;9.886;2023-02-12T13:01:24;102764.06;;;8.72;100.00
13952;BME280;39535;52.192;9.886;2023-02-12T13:04:24;102762.69;;;8.85;100.00
13952;BME280;39535;52.192;9.886;2023-02-12T13:07:05;102750.13;;;9.03;100.00
13952;BME280;39535;52.192;9.886;2023-02-12T13:09:47;102759.00;;;9.11;100.00
13952;BME280;39535;52.192;9.886;2023-02-12T13:12:46;102775.88;;;9.26;99.60
13952;BME280;39535;52.192;9.886;2023-02-12T13:15:23;102776.31;;;9.44;99.00
13952;BME280;39535;52.192;9.886;2023-02-12T13:17:57;102790.47;;;9.19;98.70
13952;BME280;39535;52.192;9.886;2023-02-12T13:20:34;102777.69;;;8.95;99.53
13952;BME280;39535;52.192;9.886;2023-02-12T13:23:10;102753.38;;;8.94;100.00
13952;BME280;39535;52.192;9.886;2023-02-12T13:25:45;102737.22;;;9.08;100.00
13952;BME280;39535;52.192;9.886;2023-02-12T13:28:17;102736.59;;;9.18;100.00